Time;durP1;ratioP1;P1;durP2;ratioP2;P2;SDS_P1;SDS_P2;PMS_P1;PMS_P2;Temp;Humidity;BMP_temperature;BMP_pressure;BME280_temperature;BME280_humidity;BME280_pressure;Samples;Min_cycle;Max_cycle;Signal;HPM_P1;HPM_P2
2022/02/04 00:20:15;;;;;;;8.93;5.60;;;;;;;-2.44;62.49;100087.91;1694528;82;21044;-79
2022/02/04 00:20:33;;;;;;;8.83;5.42;;;;;;;-2.41;62.48;100091.72;1745234;82;21368;-78
2022/02/04 00:23:07;;;;;;;8.83;4.70;;;;;;;-2.45;62.43;100099.16;1745708;82;21403;-79
2022/02/04 00:25:45;;;;;;;6.83;4.75;;;;;;;-2.44;62.54;100095.67;1739207;82;20961;-79
2022/02/04 00:28:07;;;;;;;7.08;5.28;;;;;;;-2.45;62.45;100097.86;1754335;81;21468;-78
2022/02/04 00:30:35;;;;;;;9.75;5.55;;;;;;;-2.47;62.42;100097.06;1743553;82;22242;-78
2022/02/04 00:32:59;;;;;;;8.13;5.50;;;;;;;-2.48;62.47;100107.02;1745796;82;20957;-79
2022/02/04 00:35:35;;;;;;;8.15;5.47;;;;;;;-2.49;62.49;100110.50;1743330;82;21048;-79
2022/02/04 00:37:59;;;;;;;9.83;5.70;;;;;;;-2.49;62.67;100110.95;1739630;80;21101;-79
2022/02/04 00:40:26;;;;;;;7.62;5.35;;;;;;;-2.48;62.66;100104.43;1754406;81;21004;-79
2022/02/04 00:42:55;;;;;;;8.73;5.30;;;;;;;-2.50;62.62;100106.67;1772613;80;21772;-80
2022/02/04 00:45:31;;;;;;;6.75;4.83;;;;;;;-2.55;62.66;100106.79;1759991;81;21035;-80
2022/02/04 00:48:00;;;;;;;7.10;4.70;;;;;;;-2.54;62.83;100109.77;1737805;82;21458;-79
2022/02/04 00:50:33;;;;;;;7.67;4.85;;;;;;;-2.54;62.77;100109.77;1741638;80;21500;-80
2022/02/04 00:55:40;;;;;;;6.55;4.70;;;;;;;-2.59;62.58;100115.55;1747452;82;22535;-79
2022/02/04 01:28:04;;;;;;;7.00;4.40;;;;;;;-2.79;62.01;100101.07;1774613;80;20994;-79
2022/02/04 01:30:33;;;;;;;7.00;4.45;;;;;;;-2.80;62.03;100099.34;1775171;80;21072;-79
2022/02/04 01:32:58;;;;;;;6.90;4.20;;;;;;;-2.84;61.93;100099.89;1752010;80;21058;-79
2022/02/04 01:35:25;;;;;;;5.83;3.92;;;;;;;-2.86;62.02;100102.98;1751937;80;21793;-79
2022/02/04 01:37:53;;;;;;;7.28;4.75;;;;;;;-2.86;61.93;100100.39;1772084;80;20954;-78
2022/02/04 01:40:20;;;;;;;6.15;4.10;;;;;;;-2.88;61.93;100099.59;1775431;80;20947;-79
2022/02/04 01:42:46;;;;;;;7.55;4.67;;;;;;;-2.86;62.04;100104.72;1750669;80;21428;-79
2022/02/04 01:45:13;;;;;;;7.40;4.80;;;;;;;-2.89;61.85;100101.34;1762583;80;21382;-79
2022/02/04 01:47:41;;;;;;;6.40;4.47;;;;;;;-2.90;61.86;100104.78;1731011;82;22559;-79
2022/02/04 01:50:09;;;;;;;7.15;4.22;;;;;;;-2.91;61.88;100101.80;1775785;80;20935;-79
2022/02/04 01:52:36;;;;;;;7.33;4.22;;;;;;;-2.90;61.88;100110.39;1754299;80;20943;-79
2022/02/04 01:55:03;;;;;;;7.62;4.47;;;;;;;-2.91;61.92;100104.83;1754770;81;21008;-78
2022/02/04 01:57:32;;;;;;;6.62;4.25;;;;;;;-2.93;61.95;100106.17;1748759;81;20945;-79
2022/02/04 01:59:59;;;;;;;6.37;4.17;;;;;;;-2.93;61.93;100105.33;1772510;80;22798;-79
2022/02/04 02:02:25;;;;;;;5.62;4.00;;;;;;;-2.92;61.93;100104.44;1774212;80;21556;-79
2022/02/04 02:04:53;;;;;;;7.17;4.30;;;;;;;-2.93;61.81;100106.17;1751274;80;21033;-79
2022/02/04 02:07:21;;;;;;;6.08;3.60;;;;;;;-2.93;61.73;100102.74;1775253;80;20959;-79
2022/02/04 02:09:57;;;;;;;6.47;4.10;;;;;;;-2.92;61.83;100103.98;1773646;80;20936;-78
2022/02/04 02:12:19;;;;;;;6.00;3.80;;;;;;;-2.91;61.76;100104.83;1772128;80;22308;-77
2022/02/04 02:14:54;;;;;;;6.65;4.37;;;;;;;-2.89;61.75;100102.63;1775518;80;20942;-77
2022/02/04 02:34:18;;;;;;;6.37;4.15;;;;;;;-2.96;61.22;100113.17;1746875;82;21008;-77
2022/02/04 02:44:16;;;;;;;7.33;4.58;;;;;;;-3.02;60.94;100110.30;1747930;82;20945;-78
2022/02/04 02:46:54;;;;;;;8.98;5.05;;;;;;;-3.03;61.04;100104.73;1745165;82;21448;-78
2022/02/04 02:49:33;;;;;;;7.42;4.28;;;;;;;-3.07;61.03;100104.44;1745288;82;21087;-78
2022/02/04 02:51:56;;;;;;;7.53;4.28;;;;;;;-3.10;61.06;100107.09;1737685;82;21858;-78
2022/02/04 02:59:24;;;;;;;11.78;6.42;;;;;;;-3.12;61.30;100112.75;1747470;82;21108;-77
2022/02/04 03:01:50;;;;;;;11.15;7.33;;;;;;;-3.15;61.34;100124.47;1727961;81;20930;-78
2022/02/04 03:04:17;;;;;;;11.65;8.25;;;;;;;-3.15;61.41;100123.62;1747442;82;21918;-78
2022/02/04 03:06:46;;;;;;;8.70;5.40;;;;;;;-3.16;61.48;100127.94;1747878;82;20989;-78
2022/02/04 03:09:16;;;;;;;7.83;5.65;;;;;;;-3.19;61.41;100126.71;1741472;82;21004;-78
2022/02/04 03:11:43;;;;;;;7.08;4.78;;;;;;;-3.20;61.53;100131.48;1741066;82;20985;-78
2022/02/04 03:14:09;;;;;;;6.10;4.40;;;;;;;-3.22;61.63;100129.38;1745606;82;21444;-78
2022/02/04 03:16:37;;;;;;;6.58;4.53;;;;;;;-3.23;61.64;100134.16;1748021;82;22005;-78
2022/02/04 03:19:06;;;;;;;8.08;4.78;;;;;;;-3.25;61.68;100133.35;1746791;82;21475;-79
2022/02/04 03:21:38;;;;;;;7.28;4.75;;;;;;;-3.27;61.66;100135.98;1732204;81;21487;-79
2022/02/04 03:24:06;;;;;;;7.12;4.58;;;;;;;-3.31;61.77;100133.05;1746453;82;21106;-78
2022/02/04 03:26:36;;;;;;;7.28;5.03;;;;;;;-3.34;61.84;100137.47;1747194;82;21448;-78
2022/02/04 03:28:57;;;;;;;7.33;4.83;;;;;;;-3.39;61.96;100129.83;1720192;82;21800;-78
2022/02/04 03:31:28;;;;;;;7.95;5.40;;;;;;;-3.43;62.03;100132.55;1750585;81;21099;-78
2022/02/04 03:33:52;;;;;;;12.20;8.50;;;;;;;-3.47;62.11;100130.50;1736263;80;21002;-77
2022/02/04 03:36:19;;;;;;;15.13;8.63;;;;;;;-3.50;62.18;100127.97;1732238;81;20962;-78
2022/02/04 03:38:45;;;;;;;13.10;8.73;;;;;;;-3.55;62.31;100133.27;1728312;81;20959;-78
2022/02/04 03:41:13;;;;;;;10.50;5.95;;;;;;;-3.59;62.39;100130.79;1712579;82;21866;-78
2022/02/04 03:43:40;;;;;;;8.95;5.60;;;;;;;-3.65;62.54;100131.81;1739806;82;21399;-77
2022/02/04 03:46:06;;;;;;;10.85;6.05;;;;;;;-3.70;62.61;100128.48;1732431;82;20971;-78
2022/02/04 03:48:34;;;;;;;14.15;9.10;;;;;;;-3.72;62.65;100134.13;1741987;81;21043;-78
2022/02/04 03:51:01;;;;;;;10.93;6.70;;;;;;;-3.76;62.71;100145.43;1744007;80;21078;-79
2022/02/04 03:53:27;;;;;;;9.13;5.72;;;;;;;-3.78;62.72;100147.17;1773466;80;22605;-78
2022/02/04 03:55:54;;;;;;;13.08;8.75;;;;;;;-3.81;62.76;100147.26;1761975;81;20893;-78
2022/02/04 03:58:20;;;;;;;12.07;8.10;;;;;;;-3.83;62.79;100146.45;1749400;80;20940;-78
2022/02/04 04:00:46;;;;;;;9.00;6.20;;;;;;;-3.87;62.82;100144.38;1741086;81;20965;-78
2022/02/04 04:03:13;;;;;;;11.45;6.78;;;;;;;-3.89;62.87;100150.47;1771187;80;21044;-78
2022/02/04 04:05:45;;;;;;;9.63;6.45;;;;;;;-3.91;62.90;100154.82;1772976;80;22753;-78
2022/02/04 04:08:08;;;;;;;10.72;6.12;;;;;;;-3.91;62.90;100148.37;1774916;80;20946;-78
2022/02/04 04:10:39;;;;;;;10.00;6.10;;;;;;;-3.91;62.92;100150.50;1771222;80;21006;-79
2022/02/04 04:13:04;;;;;;;9.18;5.60;;;;;;;-3.93;62.83;100159.17;1771832;80;20990;-78
2022/02/04 04:15:30;;;;;;;7.95;5.10;;;;;;;-3.98;62.84;100157.12;1775749;80;20982;-78
2022/02/04 04:17:57;;;;;;;9.65;5.42;;;;;;;-4.04;62.92;100148.67;1775706;80;21832;-78
2022/02/04 04:20:25;;;;;;;7.78;5.20;;;;;;;-4.08;62.99;100151.34;1775151;80;20999;-79
2022/02/04 04:22:54;;;;;;;8.58;5.72;;;;;;;-4.11;63.03;100149.69;1766755;80;20978;-78
2022/02/04 04:25:21;;;;;;;7.40;5.10;;;;;;;-4.15;63.06;100145.49;1768088;80;21268;-78
2022/02/04 04:27:48;;;;;;;8.83;5.30;;;;;;;-4.19;63.14;100144.30;1770810;80;20957;-78
2022/02/04 04:30:17;;;;;;;8.25;5.37;;;;;;;-4.22;63.20;100154.25;1771147;80;22165;-78
2022/02/04 04:32:44;;;;;;;7.80;5.25;;;;;;;-4.26;63.34;100151.75;1770862;80;21074;-78
2022/02/04 04:35:12;;;;;;;7.65;4.60;;;;;;;-4.29;63.38;100153.97;1760249;81;20988;-78
2022/02/04 04:40:33;;;;;;;8.60;5.45;;;;;;;-4.35;63.58;100156.67;1775796;80;20950;-78
2022/02/04 05:27:11;;;;;;;9.35;6.20;;;;;;;-4.71;64.64;100192.67;1750769;81;20996;-78
2022/02/04 05:29:09;;;;;;;10.48;6.33;;;;;;;-4.72;64.64;100195.28;1749575;81;21008;-78
2022/02/04 05:31:38;;;;;;;10.23;7.12;;;;;;;-4.74;64.70;100194.00;1738255;81;21476;-80
2022/02/04 05:34:05;;;;;;;9.63;6.50;;;;;;;-4.75;64.70;100194.88;1748275;81;21003;-77
2022/02/04 05:36:35;;;;;;;12.15;6.70;;;;;;;-4.78;64.75;100202.68;1754249;81;21843;-77
2022/02/04 05:39:00;;;;;;;14.50;8.10;;;;;;;-4.82;64.88;100206.65;1730884;81;20944;-77
2022/02/04 05:41:33;;;;;;;34.83;17.07;;;;;;;-4.85;64.96;100207.53;1754002;80;21106;-77
2022/02/04 05:44:01;;;;;;;26.52;15.00;;;;;;;-4.84;65.01;100208.38;1753585;81;21404;-76
2022/02/04 05:46:32;;;;;;;12.03;7.25;;;;;;;-4.86;65.04;100210.99;1754033;81;20956;-79
2022/02/04 05:48:58;;;;;;;17.70;10.80;;;;;;;-4.87;65.06;100211.88;1752933;81;21872;-77
2022/02/04 05:59:07;;;;;;;24.60;15.05;;;;;;;-4.88;65.20;100211.47;1753847;81;21443;-80
2022/02/04 06:01:44;;;;;;;18.35;11.50;;;;;;;-4.88;65.21;100222.21;1750451;81;21845;-80
2022/02/04 06:07:05;;;;;;;24.43;15.18;;;;;;;-4.86;65.21;100226.45;1754108;81;21012;-79
2022/02/04 06:12:28;;;;;;;13.90;8.65;;;;;;;-4.82;65.13;100229.84;1749905;81;21482;-78
2022/02/04 06:22:50;;;;;;;12.78;7.28;;;;;;;-4.78;65.06;100239.19;1733560;80;21037;-79
2022/02/04 06:25:15;;;;;;;19.85;11.90;;;;;;;-4.74;65.08;100232.65;1774254;80;21023;-79
2022/02/04 06:27:43;;;;;;;17.82;10.85;;;;;;;-4.72;65.00;100234.78;1773876;79;21774;-78
2022/02/04 06:30:11;;;;;;;16.50;9.50;;;;;;;-4.69;64.83;100241.15;1773907;80;21033;-78
2022/02/04 06:32:39;;;;;;;29.57;17.80;;;;;;;-4.67;64.71;100239.83;1774801;80;20953;-78
2022/02/04 06:35:07;;;;;;;13.68;9.13;;;;;;;-4.69;64.78;100241.15;1774572;80;20987;-79
2022/02/04 06:37:35;;;;;;;13.05;8.90;;;;;;;-4.67;64.72;100239.39;1741278;80;21012;-79
2022/02/04 06:40:03;;;;;;;12.47;8.08;;;;;;;-4.64;64.71;100234.60;1738453;81;22186;-79
2022/02/04 06:42:29;;;;;;;13.08;7.95;;;;;;;-4.59;64.63;100233.24;1715966;82;20949;-79
2022/02/04 06:44:57;;;;;;;11.90;7.50;;;;;;;-4.57;64.49;100225.88;1739335;82;21431;-79
2022/02/04 06:47:25;;;;;;;13.18;8.75;;;;;;;-4.54;64.48;100232.25;1738867;82;20982;-79
2022/02/04 06:49:52;;;;;;;13.15;8.73;;;;;;;-4.51;64.35;100236.52;1724494;82;21051;-80
2022/02/04 06:52:20;;;;;;;12.98;8.00;;;;;;;-4.48;64.34;100230.85;1709283;84;21857;-79
2022/02/04 06:54:46;;;;;;;13.72;8.53;;;;;;;-4.47;64.17;100232.98;1709650;84;20972;-79
2022/02/04 06:57:13;;;;;;;12.05;7.90;;;;;;;-4.44;64.17;100232.91;1736282;82;21041;-80
2022/02/04 06:59:42;;;;;;;12.90;8.15;;;;;;;-4.44;64.07;100235.49;1724464;82;20965;-79
2022/02/04 07:02:08;;;;;;;14.63;7.70;;;;;;;-4.40;64.17;100232.84;1731369;82;20942;-79
2022/02/04 07:04:36;;;;;;;12.70;7.80;;;;;;;-4.35;64.12;100225.84;1709279;84;22283;-79
2022/02/04 07:07:03;;;;;;;11.70;8.38;;;;;;;-4.31;63.99;100222.78;1734486;82;20993;-79
2022/02/04 07:19:58;;;;;;;10.93;7.10;;;;;;;-4.09;63.65;100222.71;1717595;82;21369;-79
2022/02/04 07:22:30;;;;;;;11.73;7.85;;;;;;;-4.02;63.48;100223.44;1729919;81;21468;-77
2022/02/04 07:24:59;;;;;;;12.78;8.30;;;;;;;-3.96;63.40;100228.44;1725406;82;23432;-77
2022/02/04 07:27:27;;;;;;;12.30;7.87;;;;;;;-3.96;63.20;100227.59;1704791;82;21016;-80
2022/02/04 07:29:54;;;;;;;11.40;7.97;;;;;;;-3.95;63.06;100221.58;1769361;80;21813;-75
2022/02/04 07:32:29;;;;;;;13.22;7.95;;;;;;;-3.89;63.14;100222.27;1771824;80;20976;-71
2022/02/04 07:42:54;;;;;;;13.80;8.85;;;;;;;-3.59;62.75;100212.95;1673096;83;21847;-71
2022/02/04 07:45:22;;;;;;;14.98;8.83;;;;;;;-3.51;62.25;100211.03;1703476;83;20957;-69
2022/02/04 07:47:49;;;;;;;13.48;9.08;;;;;;;-3.48;62.17;100202.36;1746346;82;20956;-71
2022/02/04 07:50:21;;;;;;;15.98;9.98;;;;;;;-3.44;61.95;100208.31;1745153;80;21015;-71
2022/02/04 07:52:49;;;;;;;12.55;7.83;;;;;;;-3.39;61.92;100207.73;1730799;82;21208;-69
2022/02/04 07:55:15;;;;;;;14.93;9.03;;;;;;;-3.36;61.72;100212.41;1745216;81;21823;-72
2022/02/04 07:57:44;;;;;;;11.93;7.95;;;;;;;-3.31;61.83;100214.85;1737774;80;21069;-70
2022/02/04 08:00:14;;;;;;;10.85;7.30;;;;;;;-3.20;61.66;100212.84;1766824;81;20949;-71
2022/02/04 08:02:44;;;;;;;11.13;6.97;;;;;;;-3.17;61.31;100207.62;1748576;82;20997;-70
2022/02/04 08:05:14;;;;;;;11.18;6.50;;;;;;;-3.14;61.28;100213.14;1748276;82;21562;-72
2022/02/04 08:07:50;;;;;;;10.98;6.72;;;;;;;-3.11;60.91;100220.35;1747868;82;21839;-70
2022/02/04 08:10:23;;;;;;;9.80;6.78;;;;;;;-3.09;60.85;100218.57;1746384;82;21000;-70
2022/02/04 08:26:33;;;;;;;8.95;5.72;;;;;;;-2.71;60.60;100225.30;1741410;81;21019;-71
2022/02/04 08:29:03;;;;;;;9.23;6.00;;;;;;;-2.68;60.23;100221.81;1718532;80;20969;-73
2022/02/04 08:34:26;;;;;;;10.32;6.25;;;;;;;-2.71;59.85;100224.01;1758816;80;21796;-73
2022/02/04 08:39:16;;;;;;;9.53;6.25;;;;;;;-2.60;59.96;100227.62;1735555;80;20954;-71
2022/02/04 08:52:27;;;;;;;8.18;5.90;;;;;;;-2.24;59.32;100217.94;1773892;80;21007;-76
2022/02/04 08:54:43;;;;;;;9.85;6.25;;;;;;;-2.15;59.37;100211.64;1773841;79;21006;-76
2022/02/04 08:57:18;;;;;;;8.00;5.22;;;;;;;-2.06;59.12;100208.78;1761514;80;20982;-76
2022/02/04 09:02:19;;;;;;;6.60;4.78;;;;;;;-1.95;58.75;100208.00;1775753;80;21021;-75
2022/02/04 09:04:45;;;;;;;8.08;5.37;;;;;;;-1.91;58.61;100210.06;1780047;80;20933;-79
2022/02/04 09:07:14;;;;;;;8.68;5.05;;;;;;;-1.93;58.21;100206.23;1753949;81;20958;-77
2022/02/04 09:17:56;;;;;;;9.18;5.37;;;;;;;-1.92;57.70;100197.57;1755870;81;21068;-77
2022/02/04 09:20:01;;;;;;;9.30;5.17;;;;;;;-1.89;57.70;100191.44;1744424;82;21438;-78
2022/02/04 09:22:42;;;;;;;6.55;4.67;;;;;;;-1.83;57.95;100191.27;1771412;80;21042;-76
2022/02/04 09:25:08;;;;;;;8.47;5.33;;;;;;;-1.72;57.51;100184.45;1758531;81;21844;-73
2022/02/04 09:27:36;;;;;;;6.33;4.35;;;;;;;-1.68;56.66;100186.88;1752449;80;21461;-77
2022/02/04 09:30:06;;;;;;;8.18;5.97;;;;;;;-1.69;56.51;100196.83;1767390;80;21053;-75
2022/02/04 09:32:36;;;;;;;8.18;4.22;;;;;;;-1.77;55.83;100199.66;1727453;81;21045;-76
2022/02/04 09:35:08;;;;;;;8.70;5.40;;;;;;;-1.76;56.20;100195.33;1717198;81;21024;-73
2022/02/04 09:37:36;;;;;;;6.78;4.65;;;;;;;-1.66;56.28;100197.17;1749197;81;21896;-74
2022/02/04 09:40:13;;;;;;;7.45;4.90;;;;;;;-1.59;55.19;100189.16;1740318;80;21044;-70
2022/02/04 09:42:46;;;;;;;8.68;5.58;;;;;;;-1.60;55.27;100186.63;1723859;83;21012;-70
2022/02/04 09:45:15;;;;;;;6.85;5.00;;;;;;;-1.51;55.86;100186.33;1736809;81;21051;-72
2022/02/04 09:47:49;;;;;;;6.65;4.62;;;;;;;-1.35;55.74;100181.05;1752816;81;21546;-71
2022/02/04 09:50:20;;;;;;;7.05;4.80;;;;;;;-1.27;54.77;100182.91;1752030;81;22563;-71
2022/02/04 10:12:55;;;;;;;5.67;2.85;;;;;;;-0.49;52.03;100181.88;1748605;81;21543;-71
2022/02/04 10:15:57;;;;;;;4.30;3.10;;;;;;;-0.49;51.73;100176.69;1729283;81;21000;-71
2022/02/04 10:17:40;;;;;;;5.08;3.25;;;;;;;-0.57;51.78;100178.29;1701708;81;21889;-70
2022/02/04 10:20:10;;;;;;;6.33;3.85;;;;;;;-0.70;51.90;100189.55;1766723;80;20985;-70
2022/02/04 10:22:36;;;;;;;5.17;3.33;;;;;;;-0.80;52.51;100189.94;1759971;80;20984;-70
2022/02/04 10:25:08;;;;;;;6.30;3.40;;;;;;;-0.85;52.33;100188.81;1753865;81;21447;-69
2022/02/04 10:27:35;;;;;;;4.58;3.50;;;;;;;-0.94;52.98;100181.36;1753624;81;21009;-70
2022/02/04 10:30:11;;;;;;;5.75;3.30;;;;;;;-0.93;52.88;100186.94;1753978;81;22189;-70
2022/02/04 10:32:48;;;;;;;6.03;4.20;;;;;;;-0.92;53.09;100185.58;1757758;81;20937;-71
2022/02/04 10:35:33;;;;;;;5.25;3.80;;;;;;;-0.95;52.97;100183.56;1743630;80;21067;-70
2022/02/04 10:40:53;;;;;;;6.10;4.35;;;;;;;-0.86;53.65;100178.05;1751747;81;21052;-71
2022/02/04 10:46:45;;;;;;;4.62;3.27;;;;;;;-0.80;53.71;100184.75;1731980;82;21499;-70
2022/02/04 10:54:24;;;;;;;5.80;4.08;;;;;;;-0.78;53.45;100181.64;1782281;80;21030;-69
2022/02/04 10:57:03;;;;;;;6.37;4.20;;;;;;;-0.83;53.85;100172.74;1741441;81;21853;-73
2022/02/04 11:04:42;;;;;;;5.95;4.28;;;;;;;-0.69;53.83;100157.52;1755736;81;21020;-72
2022/02/04 11:07:19;;;;;;;7.00;4.25;;;;;;;-0.46;54.17;100160.58;1754562;81;21446;-71
2022/02/04 11:31:07;;;;;;;6.67;4.72;;;;;;;-0.73;52.86;100155.95;1731938;82;21030;-71
2022/02/04 11:33:56;;;;;;;6.22;4.40;;;;;;;-0.79;53.11;100157.91;1757409;80;21051;-71
2022/02/04 11:54:30;;;;;;;6.35;4.20;;;;;;;0.74;52.23;100134.08;1743269;82;21045;-72
2022/02/04 11:57:05;;;;;;;5.75;3.83;;;;;;;0.91;51.31;100131.21;1743450;82;21008;-71
2022/02/04 11:59:41;;;;;;;7.12;4.87;;;;;;;1.23;51.84;100127.17;1725485;83;21080;-71
2022/02/04 12:02:31;;;;;;;7.53;4.80;;;;;;;1.56;51.44;100128.72;1743514;82;20960;-71
2022/02/04 12:05:12;;;;;;;6.67;4.67;;;;;;;1.91;50.04;100127.05;1743402;82;22881;-72
2022/02/04 12:07:48;;;;;;;7.22;4.65;;;;;;;1.89;49.33;100119.77;1713888;83;20989;-71
2022/02/04 12:10:21;;;;;;;7.28;5.12;;;;;;;1.86;49.72;100116.86;1728731;81;20992;-72
2022/02/04 12:13:10;;;;;;;7.20;5.15;;;;;;;2.07;49.59;100123.25;1726973;81;21380;-70
2022/02/04 12:15:43;;;;;;;7.50;5.25;;;;;;;2.19;48.80;100125.25;1755201;81;20857;-70
2022/02/04 12:18:17;;;;;;;6.85;4.87;;;;;;;2.29;49.51;100119.52;1731920;81;20942;-70
2022/02/04 12:20:58;;;;;;;5.70;3.70;;;;;;;2.54;48.35;100117.84;1773712;80;20994;-71
2022/02/04 12:23:36;;;;;;;6.25;4.47;;;;;;;2.62;47.26;100124.45;1731683;81;21027;-75
2022/02/04 12:26:19;;;;;;;6.25;4.65;;;;;;;2.43;47.88;100124.06;1757532;81;21063;-74
2022/02/04 12:29:08;;;;;;;;;;;;;;;2.51;47.38;100126.26;1759761;81;21004;-73
2022/02/04 12:31:39;;;;;;;6.12;4.58;;;;;;;2.43;48.07;100131.88;1726828;83;21863;-74
2022/02/04 12:34:14;;;;;;;6.25;4.30;;;;;;;2.79;48.74;100138.28;1742808;80;21111;-75
2022/02/04 12:36:45;;;;;;;6.25;4.65;;;;;;;3.04;47.80;100131.82;1764927;80;21053;-73
2022/02/04 12:39:26;;;;;;;6.78;4.62;;;;;;;3.14;47.52;100130.41;1765372;81;21420;-74
2022/02/04 12:41:59;;;;;;;6.03;4.83;;;;;;;3.36;47.41;100139.25;1758156;81;21069;-77
2022/02/04 12:44:39;;;;;;;6.42;4.80;;;;;;;3.52;46.57;100135.36;1759486;81;22521;-76
2022/02/04 12:47:13;;;;;;;6.58;4.78;;;;;;;3.65;45.90;100142.90;1755715;81;21088;-71
2022/02/04 12:49:52;;;;;;;6.53;4.60;;;;;;;3.68;46.57;100146.67;1762391;80;21125;-72
2022/02/04 12:54:54;;;;;;;6.20;4.37;;;;;;;3.92;45.28;100145.30;1762149;81;21103;-72
2022/02/04 13:00:08;;;;;;;6.97;4.87;;;;;;;4.30;44.27;100148.38;1764291;81;20208;-73
2022/02/04 13:10:28;;;;;;;5.72;4.22;;;;;;;4.27;43.28;100153.78;1771727;80;22197;-73
2022/02/04 13:13:04;;;;;;;5.78;4.33;;;;;;;4.13;44.08;100155.02;1747996;81;21021;-75
2022/02/04 13:15:33;;;;;;;6.45;4.30;;;;;;;4.21;43.91;100159.35;1747173;82;21019;-71
2022/02/04 13:18:09;;;;;;;6.25;4.53;;;;;;;4.30;43.60;100151.45;1746361;80;21032;-73
2022/02/04 13:20:37;;;;;;;6.65;4.30;;;;;;;4.44;42.63;100148.91;1696283;83;21020;-73
2022/02/04 13:23:09;;;;;;;6.85;4.90;;;;;;;4.39;43.60;100148.31;1738573;80;49419;-73
2022/02/04 13:25:45;;;;;;;6.45;4.70;;;;;;;4.54;43.87;100147.44;1758162;81;21244;-71
2022/02/04 13:28:28;;;;;;;7.33;4.65;;;;;;;4.71;42.78;100152.13;1734036;82;21427;-72
2022/02/04 13:31:03;;;;;;;5.78;4.45;;;;;;;4.60;43.03;100156.69;1743556;82;21040;-74
2022/02/04 13:33:41;;;;;;;7.22;4.47;;;;;;;4.80;42.85;100161.59;1769452;80;21075;-74
2022/02/04 13:36:27;;;;;;;6.83;4.72;;;;;;;4.80;42.32;100162.06;1734811;81;21847;-72
2022/02/04 13:47:06;;;;;;;7.28;4.78;;;;;;;3.85;43.05;100159.63;1774254;80;21043;-71
2022/02/04 13:52:22;;;;;;;7.22;5.30;;;;;;;3.98;43.01;100157.20;1762914;80;21001;-70
2022/02/04 13:57:29;;;;;;;8.08;5.10;;;;;;;3.83;42.41;100169.79;1749244;80;21065;-71
2022/02/04 14:00:09;;;;;;;7.58;5.35;;;;;;;3.53;42.80;100169.69;1763514;80;21019;-73
2022/02/04 14:02:38;;;;;;;7.12;5.05;;;;;;;3.32;43.36;100171.20;1764927;80;21829;-70
2022/02/04 14:05:01;;;;;;;6.92;5.00;;;;;;;3.37;43.56;100170.48;1772937;80;20920;-72
2022/02/04 14:07:40;;;;;;;7.35;4.60;;;;;;;3.23;42.52;100170.84;1774147;80;21439;-73
2022/02/04 14:10:30;;;;;;;6.17;4.53;;;;;;;3.01;43.14;100170.66;1770921;79;21066;-70
2022/02/04 14:13:01;;;;;;;7.65;4.67;;;;;;;2.85;43.37;100165.84;1778668;80;21007;-72
2022/02/04 14:15:30;;;;;;;7.25;4.60;;;;;;;2.80;43.48;100173.91;1759230;80;21044;-72
2022/02/04 14:17:59;;;;;;;5.67;4.17;;;;;;;2.81;43.59;100172.14;1746924;82;20997;-73
2022/02/04 14:20:25;;;;;;;6.40;4.58;;;;;;;2.82;43.58;100173.83;1774324;80;21012;-75
2022/02/04 14:22:52;;;;;;;7.50;5.03;;;;;;;2.71;43.59;100176.98;1774561;80;21038;-73
2022/02/04 14:25:19;;;;;;;8.03;5.15;;;;;;;2.50;43.50;100187.14;1774442;80;21019;-70
2022/02/04 14:27:49;;;;;;;5.90;4.42;;;;;;;2.26;43.67;100186.13;1774567;80;21529;-70
2022/02/04 14:30:19;;;;;;;6.55;4.62;;;;;;;2.04;44.12;100198.50;1773900;80;21004;-69
2022/02/04 14:32:53;;;;;;;6.03;4.40;;;;;;;1.83;44.42;100203.37;1774015;80;21088;-71
2022/02/04 14:36:05;;;;;;;7.20;4.78;;;;;;;1.64;44.53;100199.04;1743626;82;21083;-72
2022/02/04 14:54:27;;;;;;;7.05;4.55;;;;;;;0.20;46.85;100224.25;1773420;80;22551;-76
2022/02/04 15:02:00;;;;;;;6.62;4.75;;;;;;;-0.18;47.70;100234.80;1759831;81;21058;-72
2022/02/04 15:04:46;;;;;;;6.15;4.60;;;;;;;-0.34;48.07;100241.84;1779422;80;21067;-73
2022/02/04 15:07:10;;;;;;;6.67;5.15;;;;;;;-0.48;48.41;100237.63;1767633;80;22789;-73
2022/02/04 15:09:41;;;;;;;6.65;4.50;;;;;;;-0.60;48.54;100243.23;1774225;80;20993;-75
2022/02/04 15:12:06;;;;;;;7.03;4.80;;;;;;;-0.67;48.63;100249.56;1770088;80;21013;-75
2022/02/04 15:14:34;;;;;;;7.80;4.95;;;;;;;-0.76;48.90;100252.48;1730754;82;21031;-75
2022/02/04 15:17:02;;;;;;;94.85;60.43;;;;;;;-0.87;49.10;100249.80;1730588;83;21031;-73
2022/02/04 15:19:32;;;;;;;94.42;52.55;;;;;;;-0.92;49.33;100255.58;1710838;82;21808;-72
2022/02/04 15:21:57;;;;;;;140.35;78.45;;;;;;;-1.03;49.45;100258.15;1752304;80;21006;-74
2022/02/04 15:24:23;;;;;;;180.50;96.32;;;;;;;-1.16;49.70;100259.86;1774420;80;21045;-73
2022/02/04 15:26:50;;;;;;;131.87;69.60;;;;;;;-1.24;49.80;100264.45;1774205;80;21046;-73
2022/02/04 15:29:18;;;;;;;105.85;61.45;;;;;;;-1.30;49.86;100268.52;1774374;80;21006;-73
2022/02/04 15:31:50;;;;;;;22.30;13.15;;;;;;;-1.36;49.95;100267.86;1774456;80;21832;-73
2022/02/04 15:34:15;;;;;;;14.75;9.40;;;;;;;-1.42;50.04;100266.33;1769353;80;21022;-76
2022/02/04 15:36:45;;;;;;;10.53;6.85;;;;;;;-1.47;50.26;100272.94;1765616;81;21275;-74
2022/02/04 15:39:19;;;;;;;9.28;6.12;;;;;;;-1.53;50.35;100278.78;1765945;81;21021;-74
2022/02/04 15:41:46;;;;;;;8.10;5.33;;;;;;;-1.60;50.59;100275.98;1765676;81;21035;-76
2022/02/04 15:45:12;;;;;;;13.28;8.73;;;;;;;-1.69;50.61;100278.40;1765958;79;21863;-76
2022/02/04 15:47:05;;;;;;;22.37;14.43;;;;;;;-1.77;50.73;100282.95;1741601;81;21000;-74
2022/02/04 16:04:55;;;;;;;22.10;11.30;;;;;;;-2.14;51.46;100293.55;1769469;80;20996;-73
2022/02/04 16:07:24;;;;;;;24.82;12.73;;;;;;;-2.22;51.64;100290.32;1745378;81;21004;-74
2022/02/04 16:09:59;;;;;;;20.80;13.95;;;;;;;-2.32;51.66;100291.91;1743625;82;21856;-72
2022/02/04 16:12:27;;;;;;;48.17;30.90;;;;;;;-2.34;51.80;100294.11;1746039;81;21056;-74
2022/02/04 16:14:57;;;;;;;21.85;13.62;;;;;;;-2.39;51.80;100294.70;1747117;81;21036;-72
2022/02/04 16:17:35;;;;;;;23.00;14.15;;;;;;;-2.44;51.94;100301.27;1765012;81;21045;-73
2022/02/04 16:20:15;;;;;;;22.20;13.85;;;;;;;-2.48;52.04;100305.30;1765472;81;20979;-73
2022/02/04 16:25:41;;;;;;;21.73;13.55;;;;;;;-2.56;52.15;100295.15;1765930;81;20943;-72
2022/02/04 16:30:44;;;;;;;49.23;26.55;;;;;;;-2.63;52.54;100302.66;1767022;81;21485;-73
2022/02/04 16:33:11;;;;;;;27.40;17.35;;;;;;;-2.71;52.56;100304.59;1767220;81;21355;-74
2022/02/04 16:35:38;;;;;;;20.30;12.03;;;;;;;-2.79;52.73;100306.11;1766608;79;21867;-73
2022/02/04 16:38:05;;;;;;;11.03;7.17;;;;;;;-2.84;52.85;100307.10;1766611;79;21056;-73
2022/02/04 16:40:35;;;;;;;10.53;6.80;;;;;;;-2.91;52.95;100302.52;1767204;80;20953;-73
2022/02/04 16:43:01;;;;;;;12.07;7.37;;;;;;;-2.97;53.13;100310.00;1766995;79;20957;-73
2022/02/04 16:45:28;;;;;;;10.00;6.67;;;;;;;-3.04;53.25;100302.44;1767265;80;20981;-73
2022/02/04 16:47:57;;;;;;;14.68;9.80;;;;;;;-3.11;53.47;100300.44;1766819;80;21824;-73
2022/02/04 16:50:24;;;;;;;17.15;10.80;;;;;;;-3.18;53.59;100301.05;1767223;81;21338;-73
2022/02/04 16:52:52;;;;;;;14.25;9.43;;;;;;;-3.20;53.68;100309.70;1767044;80;20931;-73
2022/02/04 16:55:19;;;;;;;17.80;10.82;;;;;;;-3.25;53.83;100308.98;1737476;81;20957;-72
2022/02/04 16:57:47;;;;;;;16.10;10.63;;;;;;;-3.32;53.91;100312.14;1736520;82;21008;-75
2022/02/04 17:00:25;;;;;;;17.03;11.37;;;;;;;-3.42;54.08;100316.27;1738382;80;22232;-73
2022/02/04 17:02:56;;;;;;;16.55;10.48;;;;;;;-3.52;54.41;100311.32;1746258;79;20948;-67
2022/02/04 17:05:25;;;;;;;15.55;9.78;;;;;;;-3.61;54.57;100309.39;1758198;81;21119;-70
2022/02/04 17:07:57;;;;;;;13.58;7.58;;;;;;;-3.70;54.86;100314.75;1766186;81;20953;-70
2022/02/04 17:10:32;;;;;;;12.33;7.22;;;;;;;-3.80;55.08;100308.50;1754241;81;21467;-72
2022/02/04 17:13:01;;;;;;;10.32;6.15;;;;;;;-3.90;55.23;100308.73;1769309;80;21819;-68
2022/02/04 17:15:32;;;;;;;12.07;6.95;;;;;;;-3.97;55.46;100312.32;1765546;81;20957;-68
2022/02/04 17:18:00;;;;;;;11.22;7.35;;;;;;;-4.02;55.56;100308.56;1745185;82;21103;-69
2022/02/04 17:20:27;;;;;;;12.23;7.08;;;;;;;-4.09;55.74;100308.27;1767034;80;21048;-69
2022/02/04 17:22:54;;;;;;;12.40;7.15;;;;;;;-4.16;55.88;100312.70;1767180;81;21018;-71
2022/02/04 17:25:27;;;;;;;11.80;7.37;;;;;;;-4.23;56.01;100307.72;1769705;80;22211;-70